sensor_id;sensor_type;location;lat;lon;timestamp;P1;durP1;ratioP1;P2;durP2;ratioP2
74674;SDS011;63200;48.810;12.352;2023-08-07T00:00:21;1.10;;;1.10;;
74674;SDS011;63200;48.810;12.352;2023-08-07T00:02:46;1.27;;;1.15;;
74674;SDS011;63200;48.810;12.352;2023-08-07T00:05:11;1.20;;;1.20;;
74674;SDS011;63200;48.810;12.352;2023-08-07T00:07:37;1.10;;;1.10;;
74674;SDS011;63200;48.810;12.352;2023-08-07T00:10:02;3.30;;;1.02;;
74674;SDS011;63200;48.810;12.352;2023-08-07T00:12:28;2.75;;;1.23;;
74674;SDS011;63200;48.810;12.352;2023-08-07T00:14:53;1.17;;;1.13;;
74674;SDS011;63200;48.810;12.352;2023-08-07T00:17:19;1.20;;;1.10;;
74674;SDS011;63200;48.810;12.352;2023-08-07T00:19:44;1.17;;;1.17;;
74674;SDS011;63200;48.810;12.352;2023-08-07T00:22:09;3.05;;;1.27;;
74674;SDS011;63200;48.810;12.352;2023-08-07T00:24:35;0.68;;;0.65;;
74674;SDS011;63200;48.810;12.352;2023-08-07T00:27:00;1.10;;;1.10;;
74674;SDS011;63200;48.810;12.352;2023-08-07T00:29:26;1.05;;;1.05;;
74674;SDS011;63200;48.810;12.352;2023-08-07T00:31:51;2.97;;;1.10;;
74674;SDS011;63200;48.810;12.352;2023-08-07T00:34:17;1.77;;;1.38;;
74674;SDS011;63200;48.810;12.352;2023-08-07T00:36:43;1.20;;;1.00;;
74674;SDS011;63200;48.810;12.352;2023-08-07T00:39:08;1.48;;;1.10;;
74674;SDS011;63200;48.810;12.352;2023-08-07T00:41:33;0.65;;;0.65;;
74674;SDS011;63200;48.810;12.352;2023-08-07T00:43:59;0.88;;;0.88;;
74674;SDS011;63200;48.810;12.352;2023-08-07T00:46:25;0.70;;;0.70;;
74674;SDS011;63200;48.810;12.352;2023-08-07T00:48:52;0.93;;;0.85;;
74674;SDS011;63200;48.810;12.352;2023-08-07T00:51:18;1.13;;;0.80;;
74674;SDS011;63200;48.810;12.352;2023-08-07T00:53:44;2.30;;;0.80;;
74674;SDS011;63200;48.810;12.352;2023-08-07T00:56:10;1.27;;;0.73;;
74674;SDS011;63200;48.810;12.352;2023-08-07T00:58:35;1.25;;;0.90;;
74674;SDS011;63200;48.810;12.352;2023-08-07T01:01:01;0.55;;;0.55;;
74674;SDS011;63200;48.810;12.352;2023-08-07T01:03:26;1.85;;;0.80;;
74674;SDS011;63200;48.810;12.352;2023-08-07T01:05:52;0.50;;;0.50;;
74674;SDS011;63200;48.810;12.352;2023-08-07T01:08:17;0.52;;;0.52;;
74674;SDS011;63200;48.810;12.352;2023-08-07T01:13:18;0.60;;;0.60;;
74674;SDS011;63200;48.810;12.352;2023-08-07T01:16:00;0.70;;;0.70;;
74674;SDS011;63200;48.810;12.352;2023-08-07T01:18:32;0.52;;;0.52;;
74674;SDS011;63200;48.810;12.352;2023-08-07T01:20:59;0.60;;;0.60;;
74674;SDS011;63200;48.810;12.352;2023-08-07T01:23:25;2.08;;;0.50;;
74674;SDS011;63200;48.810;12.352;2023-08-07T01:25:50;0.50;;;0.50;;
74674;SDS011;63200;48.810;12.352;2023-08-07T01:28:26;0.30;;;0.30;;
74674;SDS011;63200;48.810;12.352;2023-08-07T01:30:59;0.70;;;0.68;;
74674;SDS011;63200;48.810;12.352;2023-08-07T01:33:32;0.57;;;0.40;;
74674;SDS011;63200;48.810;12.352;2023-08-07T01:36:04;1.85;;;0.70;;
74674;SDS011;63200;48.810;12.352;2023-08-07T01:38:32;0.45;;;0.45;;
74674;SDS011;63200;48.810;12.352;2023-08-07T01:40:57;0.98;;;0.50;;
74674;SDS011;63200;48.810;12.352;2023-08-07T01:43:23;0.30;;;0.30;;
74674;SDS011;63200;48.810;12.352;2023-08-07T01:45:49;0.60;;;0.60;;
74674;SDS011;63200;48.810;12.352;2023-08-07T01:48:14;0.57;;;0.57;;
74674;SDS011;63200;48.810;12.352;2023-08-07T01:50:40;0.50;;;0.50;;
74674;SDS011;63200;48.810;12.352;2023-08-07T01:53:05;2.05;;;0.50;;
74674;SDS011;63200;48.810;12.352;2023-08-07T01:55:31;0.80;;;0.47;;
74674;SDS011;63200;48.810;12.352;2023-08-07T01:57:56;0.22;;;0.22;;
74674;SDS011;63200;48.810;12.352;2023-08-07T02:00:22;0.90;;;0.80;;
74674;SDS011;63200;48.810;12.352;2023-08-07T02:02:47;1.55;;;0.50;;
74674;SDS011;63200;48.810;12.352;2023-08-07T02:05:13;2.92;;;0.52;;
74674;SDS011;63200;48.810;12.352;2023-08-07T02:07:39;0.35;;;0.32;;
74674;SDS011;63200;48.810;12.352;2023-08-07T02:10:04;0.60;;;0.60;;
74674;SDS011;63200;48.810;12.352;2023-08-07T02:12:30;3.17;;;0.75;;
74674;SDS011;63200;48.810;12.352;2023-08-07T02:14:57;0.50;;;0.50;;
74674;SDS011;63200;48.810;12.352;2023-08-07T02:17:24;0.57;;;0.57;;
74674;SDS011;63200;48.810;12.352;2023-08-07T02:19:49;0.40;;;0.40;;
74674;SDS011;63200;48.810;12.352;2023-08-07T02:22:15;1.90;;;0.43;;
74674;SDS011;63200;48.810;12.352;2023-08-07T02:24:40;0.50;;;0.50;;
74674;SDS011;63200;48.810;12.352;2023-08-07T02:27:05;0.50;;;0.50;;
74674;SDS011;63200;48.810;12.352;2023-08-07T02:29:31;0.38;;;0.30;;
74674;SDS011;63200;48.810;12.352;2023-08-07T02:31:59;4.95;;;0.40;;
74674;SDS011;63200;48.810;12.352;2023-08-07T02:34:24;0.40;;;0.40;;
74674;SDS011;63200;48.810;12.352;2023-08-07T02:36:50;0.50;;;0.50;;
74674;SDS011;63200;48.810;12.352;2023-08-07T02:39:15;0.60;;;0.60;;
74674;SDS011;63200;48.810;12.352;2023-08-07T02:41:40;0.60;;;0.60;;
74674;SDS011;63200;48.810;12.352;2023-08-07T02:44:05;0.50;;;0.50;;
74674;SDS011;63200;48.810;12.352;2023-08-07T02:46:31;0.35;;;0.35;;
74674;SDS011;63200;48.810;12.352;2023-08-07T02:48:56;0.25;;;0.25;;
74674;SDS011;63200;48.810;12.352;2023-08-07T02:51:21;0.32;;;0.32;;
74674;SDS011;63200;48.810;12.352;2023-08-07T02:53:47;0.77;;;0.43;;
74674;SDS011;63200;48.810;12.352;2023-08-07T02:56:12;0.60;;;0.60;;
74674;SDS011;63200;48.810;12.352;2023-08-07T02:58:37;0.57;;;0.57;;
74674;SDS011;63200;48.810;12.352;2023-08-07T03:01:03;0.28;;;0.28;;
74674;SDS011;63200;48.810;12.352;2023-08-07T03:03:31;0.95;;;0.63;;
74674;SDS011;63200;48.810;12.352;2023-08-07T03:05:56;1.17;;;0.60;;
74674;SDS011;63200;48.810;12.352;2023-08-07T03:08:21;0.30;;;0.30;;
74674;SDS011;63200;48.810;12.352;2023-08-07T03:10:53;0.70;;;0.70;;
74674;SDS011;63200;48.810;12.352;2023-08-07T03:13:20;0.60;;;0.60;;
74674;SDS011;63200;48.810;12.352;2023-08-07T03:15:46;0.38;;;0.38;;
74674;SDS011;63200;48.810;12.352;2023-08-07T03:18:14;0.52;;;0.40;;
74674;SDS011;63200;48.810;12.352;2023-08-07T03:20:39;0.52;;;0.40;;
74674;SDS011;63200;48.810;12.352;2023-08-07T03:23:05;0.90;;;0.40;;
74674;SDS011;63200;48.810;12.352;2023-08-07T03:25:30;0.50;;;0.50;;
74674;SDS011;63200;48.810;12.352;2023-08-07T03:27:55;1.15;;;0.40;;
74674;SDS011;63200;48.810;12.352;2023-08-07T03:30:21;1.73;;;0.70;;
74674;SDS011;63200;48.810;12.352;2023-08-07T03:32:46;0.45;;;0.45;;
74674;SDS011;63200;48.810;12.352;2023-08-07T03:35:11;0.70;;;0.70;;
74674;SDS011;63200;48.810;12.352;2023-08-07T03:37:37;1.75;;;0.60;;
74674;SDS011;63200;48.810;12.352;2023-08-07T03:40:02;0.77;;;0.60;;
74674;SDS011;63200;48.810;12.352;2023-08-07T03:42:28;0.22;;;0.22;;
74674;SDS011;63200;48.810;12.352;2023-08-07T03:44:53;0.70;;;0.70;;
74674;SDS011;63200;48.810;12.352;2023-08-07T03:47:18;0.70;;;0.70;;
74674;SDS011;63200;48.810;12.352;2023-08-07T03:49:44;0.60;;;0.60;;
74674;SDS011;63200;48.810;12.352;2023-08-07T03:52:09;0.52;;;0.52;;
74674;SDS011;63200;48.810;12.352;2023-08-07T03:54:35;1.20;;;0.70;;
74674;SDS011;63200;48.810;12.352;2023-08-07T03:57:00;0.68;;;0.68;;
74674;SDS011;63200;48.810;12.352;2023-08-07T03:59:25;0.70;;;0.60;;
74674;SDS011;63200;48.810;12.352;2023-08-07T04:01:51;1.35;;;0.65;;
74674;SDS011;63200;48.810;12.352;2023-08-07T04:04:16;0.50;;;0.50;;
74674;SDS011;63200;48.810;12.352;2023-08-07T04:06:41;0.60;;;0.60;;
74674;SDS011;63200;48.810;12.352;2023-08-07T04:09:09;0.47;;;0.47;;
74674;SDS011;63200;48.810;12.352;2023-08-07T04:11:35;1.27;;;0.70;;
74674;SDS011;63200;48.810;12.352;2023-08-07T04:14:00;0.73;;;0.65;;
74674;SDS011;63200;48.810;12.352;2023-08-07T04:16:26;2.35;;;0.90;;
74674;SDS011;63200;48.810;12.352;2023-08-07T04:18:51;1.50;;;0.73;;
74674;SDS011;63200;48.810;12.352;2023-08-07T04:21:16;0.63;;;0.63;;
74674;SDS011;63200;48.810;12.352;2023-08-07T04:23:42;0.50;;;0.50;;
74674;SDS011;63200;48.810;12.352;2023-08-07T04:26:07;0.50;;;0.50;;
74674;SDS011;63200;48.810;12.352;2023-08-07T04:28:32;0.50;;;0.50;;
74674;SDS011;63200;48.810;12.352;2023-08-07T04:30:58;1.42;;;1.33;;
74674;SDS011;63200;48.810;12.352;2023-08-07T04:33:23;1.38;;;0.57;;
74674;SDS011;63200;48.810;12.352;2023-08-07T04:35:48;0.57;;;0.57;;
74674;SDS011;63200;48.810;12.352;2023-08-07T04:38:14;0.77;;;0.77;;
74674;SDS011;63200;48.810;12.352;2023-08-07T04:40:44;3.05;;;0.50;;
74674;SDS011;63200;48.810;12.352;2023-08-07T04:43:16;0.80;;;0.80;;
74674;SDS011;63200;48.810;12.352;2023-08-07T04:45:42;0.90;;;0.90;;
74674;SDS011;63200;48.810;12.352;2023-08-07T04:48:10;1.17;;;1.17;;
74674;SDS011;63200;48.810;12.352;2023-08-07T04:50:36;1.00;;;1.00;;
74674;SDS011;63200;48.810;12.352;2023-08-07T04:53:01;1.00;;;1.00;;
74674;SDS011;63200;48.810;12.352;2023-08-07T04:55:27;1.48;;;1.15;;
74674;SDS011;63200;48.810;12.352;2023-08-07T04:57:52;1.95;;;0.55;;
74674;SDS011;63200;48.810;12.352;2023-08-07T05:00:19;1.23;;;1.05;;
74674;SDS011;63200;48.810;12.352;2023-08-07T05:02:46;1.17;;;0.90;;
74674;SDS011;63200;48.810;12.352;2023-08-07T05:05:13;1.02;;;1.02;;
74674;SDS011;63200;48.810;12.352;2023-08-07T05:07:39;2.05;;;1.25;;
74674;SDS011;63200;48.810;12.352;2023-08-07T05:10:05;2.85;;;0.60;;
74674;SDS011;63200;48.810;12.352;2023-08-07T05:12:31;0.95;;;0.95;;
74674;SDS011;63200;48.810;12.352;2023-08-07T05:14:56;0.70;;;0.70;;
74674;SDS011;63200;48.810;12.352;2023-08-07T05:17:22;0.75;;;0.75;;
74674;SDS011;63200;48.810;12.352;2023-08-07T05:19:47;0.85;;;0.85;;
74674;SDS011;63200;48.810;12.352;2023-08-07T05:22:12;1.42;;;0.80;;
74674;SDS011;63200;48.810;12.352;2023-08-07T05:24:38;1.05;;;0.80;;
74674;SDS011;63200;48.810;12.352;2023-08-07T05:27:10;0.70;;;0.70;;
74674;SDS011;63200;48.810;12.352;2023-08-07T05:29:35;1.15;;;1.15;;
74674;SDS011;63200;48.810;12.352;2023-08-07T05:32:08;3.00;;;0.77;;
74674;SDS011;63200;48.810;12.352;2023-08-07T05:34:37;1.05;;;0.90;;
74674;SDS011;63200;48.810;12.352;2023-08-07T05:37:02;1.60;;;1.08;;
74674;SDS011;63200;48.810;12.352;2023-08-07T05:39:29;2.05;;;0.93;;
74674;SDS011;63200;48.810;12.352;2023-08-07T05:41:54;1.27;;;1.10;;
74674;SDS011;63200;48.810;12.352;2023-08-07T05:44:22;1.10;;;0.90;;
74674;SDS011;63200;48.810;12.352;2023-08-07T05:46:48;0.55;;;0.55;;
74674;SDS011;63200;48.810;12.352;2023-08-07T05:49:13;0.88;;;0.88;;
74674;SDS011;63200;48.810;12.352;2023-08-07T05:51:38;0.82;;;0.82;;
74674;SDS011;63200;48.810;12.352;2023-08-07T05:54:04;2.00;;;0.90;;
74674;SDS011;63200;48.810;12.352;2023-08-07T05:56:29;1.85;;;1.25;;
74674;SDS011;63200;48.810;12.352;2023-08-07T05:58:54;1.20;;;1.15;;
74674;SDS011;63200;48.810;12.352;2023-08-07T06:01:19;3.67;;;1.30;;
74674;SDS011;63200;48.810;12.352;2023-08-07T06:03:45;2.00;;;1.27;;
74674;SDS011;63200;48.810;12.352;2023-08-07T06:06:10;3.00;;;1.30;;
74674;SDS011;63200;48.810;12.352;2023-08-07T06:08:35;1.10;;;1.10;;
74674;SDS011;63200;48.810;12.352;2023-08-07T06:11:01;3.17;;;1.20;;
74674;SDS011;63200;48.810;12.352;2023-08-07T06:13:28;1.40;;;1.30;;
74674;SDS011;63200;48.810;12.352;2023-08-07T06:15:54;2.15;;;1.00;;
74674;SDS011;63200;48.810;12.352;2023-08-07T06:18:19;1.30;;;1.20;;
74674;SDS011;63200;48.810;12.352;2023-08-07T06:20:45;0.88;;;0.88;;
74674;SDS011;63200;48.810;12.352;2023-08-07T06:23:11;1.02;;;1.02;;
74674;SDS011;63200;48.810;12.352;2023-08-07T06:25:37;1.15;;;1.15;;
74674;SDS011;63200;48.810;12.352;2023-08-07T06:28:02;0.88;;;0.88;;
74674;SDS011;63200;48.810;12.352;2023-08-07T06:30:27;1.30;;;1.20;;
74674;SDS011;63200;48.810;12.352;2023-08-07T06:32:53;1.25;;;1.17;;
74674;SDS011;63200;48.810;12.352;2023-08-07T06:35:18;1.35;;;1.20;;
74674;SDS011;63200;48.810;12.352;2023-08-07T06:37:43;2.13;;;1.33;;
74674;SDS011;63200;48.810;12.352;2023-08-07T06:40:09;1.55;;;1.13;;
74674;SDS011;63200;48.810;12.352;2023-08-07T06:42:34;3.30;;;1.33;;
74674;SDS011;63200;48.810;12.352;2023-08-07T06:45:00;1.67;;;1.05;;
74674;SDS011;63200;48.810;12.352;2023-08-07T06:47:25;3.90;;;1.17;;
74674;SDS011;63200;48.810;12.352;2023-08-07T06:49:50;1.40;;;1.27;;
74674;SDS011;63200;48.810;12.352;2023-08-07T06:52:16;2.05;;;1.27;;
74674;SDS011;63200;48.810;12.352;2023-08-07T06:54:41;2.28;;;1.33;;
74674;SDS011;63200;48.810;12.352;2023-08-07T06:57:06;0.90;;;0.90;;
74674;SDS011;63200;48.810;12.352;2023-08-07T06:59:31;1.38;;;1.23;;
74674;SDS011;63200;48.810;12.352;2023-08-07T07:01:57;1.60;;;1.20;;
74674;SDS011;63200;48.810;12.352;2023-08-07T07:04:22;1.52;;;1.50;;
74674;SDS011;63200;48.810;12.352;2023-08-07T07:06:47;1.15;;;1.15;;
74674;SDS011;63200;48.810;12.352;2023-08-07T07:09:13;6.63;;;2.10;;
74674;SDS011;63200;48.810;12.352;2023-08-07T07:11:41;2.70;;;1.85;;
74674;SDS011;63200;48.810;12.352;2023-08-07T07:14:07;1.60;;;1.50;;
74674;SDS011;63200;48.810;12.352;2023-08-07T07:16:32;1.80;;;1.40;;
74674;SDS011;63200;48.810;12.352;2023-08-07T07:18:58;2.33;;;1.90;;
74674;SDS011;63200;48.810;12.352;2023-08-07T07:21:24;1.52;;;1.45;;
74674;SDS011;63200;48.810;12.352;2023-08-07T07:23:50;2.00;;;1.27;;
74674;SDS011;63200;48.810;12.352;2023-08-07T07:26:17;7.45;;;1.70;;
74674;SDS011;63200;48.810;12.352;2023-08-07T07:28:42;2.88;;;1.90;;
74674;SDS011;63200;48.810;12.352;2023-08-07T07:31:07;3.35;;;1.58;;
74674;SDS011;63200;48.810;12.352;2023-08-07T07:33:36;2.47;;;1.70;;
74674;SDS011;63200;48.810;12.352;2023-08-07T07:36:04;2.85;;;2.38;;
74674;SDS011;63200;48.810;12.352;2023-08-07T07:38:29;4.88;;;1.45;;
74674;SDS011;63200;48.810;12.352;2023-08-07T07:40:55;1.48;;;0.88;;
74674;SDS011;63200;48.810;12.352;2023-08-07T07:43:22;2.78;;;1.17;;
74674;SDS011;63200;48.810;12.352;2023-08-07T07:45:47;5.07;;;2.17;;
74674;SDS011;63200;48.810;12.352;2023-08-07T07:48:13;7.50;;;1.85;;
74674;SDS011;63200;48.810;12.352;2023-08-07T07:50:38;1.70;;;1.60;;
74674;SDS011;63200;48.810;12.352;2023-08-07T07:53:03;3.70;;;1.50;;
74674;SDS011;63200;48.810;12.352;2023-08-07T07:55:29;5.68;;;1.60;;
74674;SDS011;63200;48.810;12.352;2023-08-07T07:57:54;2.60;;;1.38;;
74674;SDS011;63200;48.810;12.352;2023-08-07T08:00:20;1.95;;;1.77;;
74674;SDS011;63200;48.810;12.352;2023-08-07T08:02:47;1.95;;;1.50;;
74674;SDS011;63200;48.810;12.352;2023-08-07T08:05:12;2.28;;;1.85;;
74674;SDS011;63200;48.810;12.352;2023-08-07T08:07:38;2.60;;;1.38;;
74674;SDS011;63200;48.810;12.352;2023-08-07T08:10:07;1.95;;;1.23;;
74674;SDS011;63200;48.810;12.352;2023-08-07T08:12:34;1.30;;;1.23;;
74674;SDS011;63200;48.810;12.352;2023-08-07T08:14:59;1.77;;;0.82;;
74674;SDS011;63200;48.810;12.352;2023-08-07T08:17:25;7.03;;;1.10;;
74674;SDS011;63200;48.810;12.352;2023-08-07T08:19:50;1.25;;;1.25;;
74674;SDS011;63200;48.810;12.352;2023-08-07T08:22:16;3.83;;;1.98;;
74674;SDS011;63200;48.810;12.352;2023-08-07T08:24:41;1.40;;;1.40;;
74674;SDS011;63200;48.810;12.352;2023-08-07T08:27:06;4.63;;;1.75;;
74674;SDS011;63200;48.810;12.352;2023-08-07T08:29:32;2.35;;;1.50;;
74674;SDS011;63200;48.810;12.352;2023-08-07T08:31:57;1.50;;;1.40;;
74674;SDS011;63200;48.810;12.352;2023-08-07T08:34:22;2.50;;;2.25;;
74674;SDS011;63200;48.810;12.352;2023-08-07T08:36:48;2.50;;;1.40;;
74674;SDS011;63200;48.810;12.352;2023-08-07T08:39:13;2.95;;;1.30;;
74674;SDS011;63200;48.810;12.352;2023-08-07T08:41:39;1.20;;;1.20;;
74674;SDS011;63200;48.810;12.352;2023-08-07T08:44:06;1.13;;;1.00;;
74674;SDS011;63200;48.810;12.352;2023-08-07T08:46:32;1.33;;;1.02;;
74674;SDS011;63200;48.810;12.352;2023-08-07T08:48:59;1.65;;;1.55;;
74674;SDS011;63200;48.810;12.352;2023-08-07T08:51:28;1.55;;;1.48;;
74674;SDS011;63200;48.810;12.352;2023-08-07T08:53:55;3.20;;;1.60;;
74674;SDS011;63200;48.810;12.352;2023-08-07T08:56:21;3.10;;;1.50;;
74674;SDS011;63200;48.810;12.352;2023-08-07T08:58:47;1.60;;;1.20;;
74674;SDS011;63200;48.810;12.352;2023-08-07T09:01:15;1.42;;;1.33;;
74674;SDS011;63200;48.810;12.352;2023-08-07T09:03:41;2.92;;;1.55;;
74674;SDS011;63200;48.810;12.352;2023-08-07T09:06:07;1.63;;;0.90;;
74674;SDS011;63200;48.810;12.352;2023-08-07T09:08:33;1.85;;;1.20;;
74674;SDS011;63200;48.810;12.352;2023-08-07T09:11:00;4.05;;;1.52;;
74674;SDS011;63200;48.810;12.352;2023-08-07T09:13:25;2.50;;;1.38;;
74674;SDS011;63200;48.810;12.352;2023-08-07T09:15:53;2.78;;;1.52;;
74674;SDS011;63200;48.810;12.352;2023-08-07T09:18:19;3.28;;;1.20;;
74674;SDS011;63200;48.810;12.352;2023-08-07T09:20:48;2.00;;;1.50;;
74674;SDS011;63200;48.810;12.352;2023-08-07T09:23:14;4.35;;;1.60;;
74674;SDS011;63200;48.810;12.352;2023-08-07T09:25:41;1.65;;;1.55;;
74674;SDS011;63200;48.810;12.352;2023-08-07T09:28:07;4.22;;;1.70;;
74674;SDS011;63200;48.810;12.352;2023-08-07T09:30:32;1.58;;;1.45;;
74674;SDS011;63200;48.810;12.352;2023-08-07T09:33:00;3.40;;;1.35;;
74674;SDS011;63200;48.810;12.352;2023-08-07T09:35:26;1.67;;;1.58;;
74674;SDS011;63200;48.810;12.352;2023-08-07T09:37:54;3.22;;;1.83;;
74674;SDS011;63200;48.810;12.352;2023-08-07T09:40:19;2.15;;;1.80;;
74674;SDS011;63200;48.810;12.352;2023-08-07T09:42:45;3.25;;;1.90;;
74674;SDS011;63200;48.810;12.352;2023-08-07T09:45:25;2.35;;;1.48;;
74674;SDS011;63200;48.810;12.352;2023-08-07T09:48:01;1.65;;;1.42;;
74674;SDS011;63200;48.810;12.352;2023-08-07T09:50:31;3.60;;;1.52;;
74674;SDS011;63200;48.810;12.352;2023-08-07T09:52:57;2.70;;;1.58;;
74674;SDS011;63200;48.810;12.352;2023-08-07T09:55:25;2.22;;;1.23;;
74674;SDS011;63200;48.810;12.352;2023-08-07T09:57:51;2.83;;;1.73;;
74674;SDS011;63200;48.810;12.352;2023-08-07T10:00:17;4.20;;;1.58;;
74674;SDS011;63200;48.810;12.352;2023-08-07T10:02:45;2.35;;;1.63;;
74674;SDS011;63200;48.810;12.352;2023-08-07T10:05:12;3.55;;;1.65;;
74674;SDS011;63200;48.810;12.352;2023-08-07T10:07:38;2.38;;;1.67;;
74674;SDS011;63200;48.810;12.352;2023-08-07T10:10:04;2.05;;;1.70;;
74674;SDS011;63200;48.810;12.352;2023-08-07T10:12:31;1.77;;;1.63;;
74674;SDS011;63200;48.810;12.352;2023-08-07T10:14:57;4.32;;;1.70;;
74674;SDS011;63200;48.810;12.352;2023-08-07T10:17:24;3.80;;;2.03;;
74674;SDS011;63200;48.810;12.352;2023-08-07T10:19:50;3.72;;;1.88;;
74674;SDS011;63200;48.810;12.352;2023-08-07T10:22:17;6.10;;;2.08;;
74674;SDS011;63200;48.810;12.352;2023-08-07T10:24:43;3.00;;;1.70;;
74674;SDS011;63200;48.810;12.352;2023-08-07T10:27:13;2.80;;;1.45;;
74674;SDS011;63200;48.810;12.352;2023-08-07T10:29:41;2.22;;;1.55;;
74674;SDS011;63200;48.810;12.352;2023-08-07T10:32:09;5.35;;;2.33;;
74674;SDS011;63200;48.810;12.352;2023-08-07T10:34:36;3.17;;;2.05;;
74674;SDS011;63200;48.810;12.352;2023-08-07T10:37:02;2.13;;;1.85;;
74674;SDS011;63200;48.810;12.352;2023-08-07T10:39:32;2.63;;;1.70;;
74674;SDS011;63200;48.810;12.352;2023-08-07T10:41:57;3.35;;;1.70;;
74674;SDS011;63200;48.810;12.352;2023-08-07T10:44:27;6.22;;;2.10;;
74674;SDS011;63200;48.810;12.352;2023-08-07T10:46:57;2.35;;;1.88;;
74674;SDS011;63200;48.810;12.352;2023-08-07T10:49:36;2.45;;;1.63;;
74674;SDS011;63200;48.810;12.352;2023-08-07T10:54:37;1.63;;;1.52;;
74674;SDS011;63200;48.810;12.352;2023-08-07T10:57:10;3.42;;;1.52;;
74674;SDS011;63200;48.810;12.352;2023-08-07T10:59:38;2.85;;;1.58;;
74674;SDS011;63200;48.810;12.352;2023-08-07T11:02:03;5.88;;;1.42;;
74674;SDS011;63200;48.810;12.352;2023-08-07T11:04:36;5.85;;;1.70;;
74674;SDS011;63200;48.810;12.352;2023-08-07T11:07:01;2.80;;;1.50;;
74674;SDS011;63200;48.810;12.352;2023-08-07T11:09:27;1.75;;;1.60;;
74674;SDS011;63200;48.810;12.352;2023-08-07T11:11:52;5.10;;;1.52;;
74674;SDS011;63200;48.810;12.352;2023-08-07T11:14:18;1.35;;;1.35;;
74674;SDS011;63200;48.810;12.352;2023-08-07T11:16:45;2.15;;;1.63;;
74674;SDS011;63200;48.810;12.352;2023-08-07T11:19:13;1.83;;;1.48;;
74674;SDS011;63200;48.810;12.352;2023-08-07T11:21:40;2.03;;;1.25;;
74674;SDS011;63200;48.810;12.352;2023-08-07T11:24:06;4.45;;;1.50;;
74674;SDS011;63200;48.810;12.352;2023-08-07T11:26:31;3.47;;;1.67;;
74674;SDS011;63200;48.810;12.352;2023-08-07T11:28:57;3.88;;;1.70;;
74674;SDS011;63200;48.810;12.352;2023-08-07T11:31:23;1.60;;;1.50;;
74674;SDS011;63200;48.810;12.352;2023-08-07T11:33:50;5.85;;;1.50;;
74674;SDS011;63200;48.810;12.352;2023-08-07T11:36:16;3.30;;;2.20;;
74674;SDS011;63200;48.810;12.352;2023-08-07T11:38:42;3.03;;;1.20;;
74674;SDS011;63200;48.810;12.352;2023-08-07T11:41:09;2.97;;;1.30;;
74674;SDS011;63200;48.810;12.352;2023-08-07T11:43:36;1.10;;;0.90;;
74674;SDS011;63200;48.810;12.352;2023-08-07T11:46:20;1.35;;;1.25;;
74674;SDS011;63200;48.810;12.352;2023-08-07T11:48:46;2.05;;;1.10;;
74674;SDS011;63200;48.810;12.352;2023-08-07T11:51:11;1.92;;;1.20;;
74674;SDS011;63200;48.810;12.352;2023-08-07T11:53:38;2.42;;;1.30;;
74674;SDS011;63200;48.810;12.352;2023-08-07T11:56:06;11.35;;;1.33;;
74674;SDS011;63200;48.810;12.352;2023-08-07T11:58:39;1.00;;;1.00;;
74674;SDS011;63200;48.810;12.352;2023-08-07T12:01:06;2.58;;;1.20;;
74674;SDS011;63200;48.810;12.352;2023-08-07T12:03:37;1.33;;;0.80;;
74674;SDS011;63200;48.810;12.352;2023-08-07T12:06:04;1.30;;;1.20;;
74674;SDS011;63200;48.810;12.352;2023-08-07T12:08:31;1.27;;;1.17;;
74674;SDS011;63200;48.810;12.352;2023-08-07T12:11:08;1.25;;;1.25;;
74674;SDS011;63200;48.810;12.352;2023-08-07T12:13:36;1.17;;;1.17;;
74674;SDS011;63200;48.810;12.352;2023-08-07T12:16:03;3.22;;;1.20;;
74674;SDS011;63200;48.810;12.352;2023-08-07T12:18:29;1.73;;;1.15;;
74674;SDS011;63200;48.810;12.352;2023-08-07T12:20:58;2.05;;;1.30;;
74674;SDS011;63200;48.810;12.352;2023-08-07T12:23:25;1.00;;;1.00;;
74674;SDS011;63200;48.810;12.352;2023-08-07T12:25:51;1.50;;;1.20;;
74674;SDS011;63200;48.810;12.352;2023-08-07T12:28:17;1.50;;;1.10;;
74674;SDS011;63200;48.810;12.352;2023-08-07T12:30:44;1.85;;;1.30;;
74674;SDS011;63200;48.810;12.352;2023-08-07T12:33:11;3.60;;;1.20;;
74674;SDS011;63200;48.810;12.352;2023-08-07T12:35:36;4.00;;;1.20;;
74674;SDS011;63200;48.810;12.352;2023-08-07T12:38:01;2.45;;;1.40;;
74674;SDS011;63200;48.810;12.352;2023-08-07T12:40:28;1.63;;;1.20;;
74674;SDS011;63200;48.810;12.352;2023-08-07T12:42:53;2.08;;;1.15;;
74674;SDS011;63200;48.810;12.352;2023-08-07T12:45:19;1.48;;;1.30;;
74674;SDS011;63200;48.810;12.352;2023-08-07T12:47:45;1.58;;;1.10;;
74674;SDS011;63200;48.810;12.352;2023-08-07T12:50:11;3.53;;;1.30;;
74674;SDS011;63200;48.810;12.352;2023-08-07T12:52:37;3.50;;;1.00;;
74674;SDS011;63200;48.810;12.352;2023-08-07T12:55:02;2.05;;;1.08;;
74674;SDS011;63200;48.810;12.352;2023-08-07T12:57:28;1.38;;;1.38;;
74674;SDS011;63200;48.810;12.352;2023-08-07T12:59:54;0.93;;;0.80;;
74674;SDS011;63200;48.810;12.352;2023-08-07T13:02:19;1.80;;;1.27;;
74674;SDS011;63200;48.810;12.352;2023-08-07T13:04:45;3.55;;;1.85;;
74674;SDS011;63200;48.810;12.352;2023-08-07T13:07:11;1.15;;;1.00;;
74674;SDS011;63200;48.810;12.352;2023-08-07T13:09:36;2.22;;;1.17;;
74674;SDS011;63200;48.810;12.352;2023-08-07T13:12:02;0.95;;;0.95;;
74674;SDS011;63200;48.810;12.352;2023-08-07T13:14:27;0.90;;;0.90;;
74674;SDS011;63200;48.810;12.352;2023-08-07T13:16:53;2.28;;;0.93;;
74674;SDS011;63200;48.810;12.352;2023-08-07T13:19:18;1.20;;;0.93;;
74674;SDS011;63200;48.810;12.352;2023-08-07T13:21:43;1.42;;;0.98;;
74674;SDS011;63200;48.810;12.352;2023-08-07T13:24:09;0.90;;;0.90;;
74674;SDS011;63200;48.810;12.352;2023-08-07T13:26:34;1.98;;;1.10;;
74674;SDS011;63200;48.810;12.352;2023-08-07T13:28:59;3.70;;;1.13;;
74674;SDS011;63200;48.810;12.352;2023-08-07T13:31:25;1.30;;;1.08;;
74674;SDS011;63200;48.810;12.352;2023-08-07T13:33:50;2.78;;;1.10;;
74674;SDS011;63200;48.810;12.352;2023-08-07T13:36:15;5.30;;;1.20;;
74674;SDS011;63200;48.810;12.352;2023-08-07T13:38:41;1.52;;;1.35;;
74674;SDS011;63200;48.810;12.352;2023-08-07T13:41:06;2.22;;;1.50;;
74674;SDS011;63200;48.810;12.352;2023-08-07T13:43:33;1.33;;;1.23;;
74674;SDS011;63200;48.810;12.352;2023-08-07T13:45:59;5.72;;;1.38;;
74674;SDS011;63200;48.810;12.352;2023-08-07T13:48:24;3.38;;;1.23;;
74674;SDS011;63200;48.810;12.352;2023-08-07T13:50:52;1.48;;;1.20;;
74674;SDS011;63200;48.810;12.352;2023-08-07T13:53:17;1.45;;;1.23;;
74674;SDS011;63200;48.810;12.352;2023-08-07T13:55:44;2.67;;;1.50;;
74674;SDS011;63200;48.810;12.352;2023-08-07T13:58:10;1.33;;;1.27;;
74674;SDS011;63200;48.810;12.352;2023-08-07T14:00:36;2.20;;;1.25;;
74674;SDS011;63200;48.810;12.352;2023-08-07T14:03:01;1.38;;;1.33;;
74674;SDS011;63200;48.810;12.352;2023-08-07T14:05:26;1.90;;;1.70;;
74674;SDS011;63200;48.810;12.352;2023-08-07T14:07:52;4.82;;;1.40;;
74674;SDS011;63200;48.810;12.352;2023-08-07T14:10:18;2.60;;;1.20;;
74674;SDS011;63200;48.810;12.352;2023-08-07T14:12:43;4.25;;;1.40;;
74674;SDS011;63200;48.810;12.352;2023-08-07T14:15:09;1.30;;;1.20;;
74674;SDS011;63200;48.810;12.352;2023-08-07T14:17:34;1.40;;;1.30;;
74674;SDS011;63200;48.810;12.352;2023-08-07T14:20:00;1.65;;;1.55;;
74674;SDS011;63200;48.810;12.352;2023-08-07T14:22:25;2.35;;;2.17;;
74674;SDS011;63200;48.810;12.352;2023-08-07T14:24:51;1.88;;;1.60;;
74674;SDS011;63200;48.810;12.352;2023-08-07T14:27:16;1.98;;;1.50;;
74674;SDS011;63200;48.810;12.352;2023-08-07T14:29:41;2.53;;;1.52;;
74674;SDS011;63200;48.810;12.352;2023-08-07T14:32:07;5.57;;;1.42;;